Turkey City, Pennsylvania
Current Conditions -  °F | °C
As of 1:55 PM on Wednesday 26 Nov 2014 (Local Time) from KFKL Reporting Station
Overcast Overcast  
Wind Chill: 24°   Ceiling: 400
Heat Index: 30°   Visibility: 1.7mi
Dew Point: 27°   Wind: 6mph
Humidity: 86%   Direction: 40°NE
Pressure: 30.01"   Gusts: NA
Location:  41.19°N, 79.61°W
Report Text: KFKL 261855Z AUTO 04005KT 1 3/4SM OVC004 M01/M03 A3001 RMK AO1 P0002
Loading
Personal Weather Stations






























Interactive Weather Map New forecast layout! Learn more

10-Day Weather Forecast

Advertisements
Track Severe Weather on mobile